Time;durP1;ratioP1;P1;durP2;ratioP2;P2;SDS_P1;SDS_P2;PMS_P1;PMS_P2;Temp;Humidity;BMP_temperature;BMP_pressure;BME280_temperature;BME280_humidity;BME280_pressure;Samples;Min_cycle;Max_cycle;Signal;HPM_P1;HPM_P2
2023/08/16 00:01:01;;;;;;;6.95;3.80;;;16.40;99.90;;;;;;5035388;28;20041;-70
2023/08/16 00:03:26;;;;;;;8.55;3.75;;;16.20;99.90;;;;;;5017542;28;20047;-70
2023/08/16 00:05:52;;;;;;;5.80;3.53;;;16.40;99.90;;;;;;5034857;28;20045;-70
2023/08/16 00:08:18;;;;;;;6.97;3.75;;;16.30;99.90;;;;;;5017387;28;20060;-70
2023/08/16 00:10:44;;;;;;;6.53;3.63;;;16.20;99.90;;;;;;5035183;28;20541;-70
2023/08/16 00:13:09;;;;;;;6.97;3.55;;;16.20;99.90;;;;;;5017195;28;20128;-70
2023/08/16 00:15:35;;;;;;;6.88;3.60;;;16.30;99.90;;;;;;5034883;28;20099;-70
2023/08/16 00:18:00;;;;;;;8.85;4.55;;;16.30;99.90;;;;;;5034744;28;20037;-70
2023/08/16 00:20:29;;;;;;;7.22;3.70;;;16.40;99.90;;;;;;5034929;28;20072;-70
2023/08/16 00:22:54;;;;;;;6.30;3.95;;;16.00;99.90;;;;;;5035038;28;20034;-70
2023/08/16 00:25:20;;;;;;;6.85;3.78;;;16.30;99.90;;;;;;5017027;28;20520;-70
2023/08/16 00:27:46;;;;;;;5.63;3.90;;;16.20;99.90;;;;;;5034247;28;20045;-70
2023/08/16 00:30:11;;;;;;;4.55;3.45;;;15.90;99.90;;;;;;5017073;28;20404;-70
2023/08/16 00:32:37;;;;;;;8.32;4.07;;;16.10;99.90;;;;;;5034804;28;20124;-70
2023/08/16 00:35:04;;;;;;;8.73;4.00;;;16.30;99.90;;;;;;5034298;28;20124;-70
2023/08/16 00:37:30;;;;;;;5.18;3.00;;;16.10;99.90;;;;;;5016542;28;20537;-69
2023/08/16 00:39:56;;;;;;;6.45;3.63;;;16.00;99.90;;;;;;5034680;28;20038;-70
2023/08/16 00:42:22;;;;;;;5.97;3.60;;;15.90;99.90;;;;;;5016588;28;20057;-70
2023/08/16 00:44:47;;;;;;;5.50;4.15;;;16.00;99.90;;;;;;5034371;28;20462;-70
2023/08/16 00:47:13;;;;;;;7.90;4.45;;;16.10;99.90;;;;;;5016756;28;20071;-70
2023/08/16 00:49:40;;;;;;;6.38;4.85;;;16.00;99.90;;;;;;5034306;28;20488;-70
2023/08/16 00:52:06;;;;;;;5.97;4.55;;;16.10;99.90;;;;;;5034392;28;20049;-70
2023/08/16 00:54:32;;;;;;;6.57;4.35;;;15.80;99.90;;;;;;5034238;28;20033;-70
2023/08/16 00:56:58;;;;;;;7.50;4.65;;;15.80;99.90;;;;;;5033890;28;20547;-70
2023/08/16 00:59:27;;;;;;;11.10;4.90;;;15.80;99.90;;;;;;5034228;28;20033;-70
2023/08/16 01:01:53;;;;;;;10.60;6.15;;;15.60;99.90;;;;;;5034026;28;20390;-70
2023/08/16 01:04:19;;;;;;;8.13;6.03;;;15.60;99.90;;;;;;5034161;28;20116;-70
2023/08/16 01:06:45;;;;;;;10.38;5.88;;;16.00;99.90;;;;;;5033879;28;20444;-69
2023/08/16 01:09:11;;;;;;;8.55;5.68;;;16.00;99.90;;;;;;5033149;28;20053;-70
2023/08/16 01:11:52;;;;;;;8.05;4.97;;;15.60;99.90;;;;;;5033838;28;20119;-70
2023/08/16 01:14:29;;;;;;;9.48;5.97;;;15.80;99.90;;;;;;5034024;28;20037;-70
2023/08/16 01:16:56;;;;;;;7.75;5.55;;;16.00;99.90;;;;;;5033808;28;20049;-70
2023/08/16 01:19:31;;;;;;;10.23;5.90;;;15.70;99.90;;;;;;5033736;28;20079;-70
2023/08/16 01:22:06;;;;;;;9.57;5.35;;;16.00;99.90;;;;;;5033683;28;20037;-70
2023/08/16 01:24:42;;;;;;;11.02;5.43;;;16.00;99.90;;;;;;5030614;28;20046;-70
2023/08/16 01:27:08;;;;;;;10.40;5.78;;;15.90;99.90;;;;;;5013901;28;20033;-70
2023/08/16 01:29:35;;;;;;;7.97;5.35;;;15.80;99.90;;;;;;5013691;28;20490;-70
2023/08/16 01:32:01;;;;;;;9.10;5.78;;;16.00;99.90;;;;;;5013880;28;20041;-70
2023/08/16 01:34:26;;;;;;;9.30;5.70;;;15.50;99.90;;;;;;5013529;28;20041;-70
2023/08/16 01:36:52;;;;;;;10.60;5.65;;;15.80;99.90;;;;;;5013817;28;20033;-69
2023/08/16 01:39:18;;;;;;;16.88;6.40;;;15.70;99.90;;;;;;4996167;28;20489;-70
2023/08/16 01:41:50;;;;;;;7.65;4.75;;;15.60;99.90;;;;;;5013667;28;20077;-70
2023/08/16 01:44:17;;;;;;;7.68;4.90;;;15.80;99.90;;;;;;5013472;28;20497;-70
2023/08/16 01:46:43;;;;;;;5.90;4.40;;;15.50;99.90;;;;;;4995783;28;20038;-70
2023/08/16 01:49:10;;;;;;;8.63;4.90;;;15.80;99.90;;;;;;5013214;28;20042;-70
2023/08/16 01:51:36;;;;;;;7.05;4.82;;;15.70;99.90;;;;;;5013660;28;20041;-70
2023/08/16 01:54:02;;;;;;;5.88;4.63;;;15.80;99.90;;;;;;5013318;28;20452;-69
2023/08/16 01:56:27;;;;;;;7.43;5.38;;;15.70;99.90;;;;;;4996018;28;20121;-70
2023/08/16 01:58:53;;;;;;;6.38;4.95;;;15.70;99.90;;;;;;4995446;28;20041;-70
2023/08/16 02:01:18;;;;;;;6.78;4.97;;;15.70;99.90;;;;;;5020331;28;20033;-70
2023/08/16 02:03:44;;;;;;;9.02;5.15;;;15.50;99.90;;;;;;5024618;28;20416;-70
2023/08/16 02:06:10;;;;;;;8.35;5.57;;;15.80;99.90;;;;;;5028873;28;20073;-70
2023/08/16 02:08:35;;;;;;;7.10;5.00;;;15.40;99.90;;;;;;5027841;28;20045;-70
2023/08/16 02:11:01;;;;;;;9.75;5.40;;;15.30;99.90;;;;;;5015175;28;20116;-70
2023/08/16 02:13:26;;;;;;;8.90;4.75;;;15.40;99.90;;;;;;5032869;28;20037;-70
2023/08/16 02:16:02;;;;;;;8.13;4.38;;;15.50;99.90;;;;;;5032572;28;20038;-70
2023/08/16 02:18:30;;;;;;;4.80;3.22;;;15.60;99.90;;;;;;5032598;28;20047;-70
2023/08/16 02:20:55;;;;;;;5.05;3.33;;;15.50;99.90;;;;;;5014835;28;20049;-70
2023/08/16 02:23:21;;;;;;;7.07;3.50;;;15.40;99.90;;;;;;5014779;28;20048;-70
2023/08/16 02:25:46;;;;;;;5.10;2.80;;;15.20;99.90;;;;;;5014671;28;20048;-70
2023/08/16 02:28:12;;;;;;;3.45;2.83;;;15.30;99.90;;;;;;5014557;28;20045;-70
2023/08/16 02:30:37;;;;;;;3.97;2.75;;;15.30;99.90;;;;;;5032314;28;20091;-70
2023/08/16 02:33:03;;;;;;;3.85;2.70;;;15.20;99.90;;;;;;5032537;28;20044;-70
2023/08/16 02:35:29;;;;;;;5.82;3.00;;;15.30;99.90;;;;;;5032216;28;20041;-70
2023/08/16 02:37:54;;;;;;;4.57;3.03;;;15.00;99.90;;;;;;5032104;28;20053;-70
2023/08/16 02:40:20;;;;;;;5.22;3.22;;;15.10;99.90;;;;;;5014502;28;20067;-70
2023/08/16 02:42:49;;;;;;;10.20;4.22;;;15.00;99.90;;;;;;5032379;28;20256;-69
2023/08/16 02:45:15;;;;;;;5.70;3.85;;;15.20;99.90;;;;;;5014307;28;20516;-69
2023/08/16 02:47:40;;;;;;;7.13;4.05;;;15.20;99.90;;;;;;5032088;28;20037;-70
2023/08/16 02:50:06;;;;;;;7.57;4.50;;;15.20;99.90;;;;;;5032235;28;20084;-70
2023/08/16 02:52:32;;;;;;;7.97;4.97;;;14.90;99.90;;;;;;5032217;28;20041;-70
2023/08/16 02:54:57;;;;;;;7.75;3.97;;;15.10;99.90;;;;;;5031948;28;20052;-70
2023/08/16 02:57:23;;;;;;;5.82;3.60;;;15.00;99.90;;;;;;5031746;28;20068;-70
2023/08/16 02:59:49;;;;;;;2.58;1.85;;;15.20;99.90;;;;;;5031612;28;20038;-70
2023/08/16 03:02:14;;;;;;;2.63;1.63;;;14.90;99.90;;;;;;5014097;28;20083;-70
2023/08/16 03:04:40;;;;;;;2.90;1.95;;;15.00;99.90;;;;;;5016059;28;20108;-69
2023/08/16 03:07:07;;;;;;;3.20;1.70;;;14.80;99.90;;;;;;5012109;28;20069;-69
2023/08/16 03:09:33;;;;;;;2.10;1.52;;;14.90;99.90;;;;;;5011981;28;20521;-69
2023/08/16 03:11:58;;;;;;;2.33;1.77;;;14.70;99.90;;;;;;5012177;28;20045;-70
2023/08/16 03:14:24;;;;;;;4.15;1.52;;;14.70;99.90;;;;;;5011914;28;20042;-70
2023/08/16 03:16:50;;;;;;;4.47;1.55;;;14.80;99.90;;;;;;5011877;28;20038;-70
2023/08/16 03:19:16;;;;;;;4.68;2.17;;;14.60;99.90;;;;;;5012137;28;20064;-70
2023/08/16 03:21:41;;;;;;;2.95;1.80;;;14.70;99.90;;;;;;5012077;28;20038;-70
2023/08/16 03:24:07;;;;;;;3.65;1.38;;;14.50;99.90;;;;;;5011988;28;20145;-70
2023/08/16 03:26:33;;;;;;;5.07;1.33;;;14.70;99.90;;;;;;5011917;28;20550;-69
2023/08/16 03:28:58;;;;;;;1.25;1.15;;;14.40;99.90;;;;;;5011545;28;20139;-70
2023/08/16 03:31:24;;;;;;;1.13;1.02;;;14.60;99.90;;;;;;5011516;28;20042;-69
2023/08/16 03:33:50;;;;;;;1.05;0.90;;;14.60;99.90;;;;;;5010864;28;20099;-70
2023/08/16 03:36:15;;;;;;;1.35;1.00;;;14.40;99.90;;;;;;5011493;28;20505;-70
2023/08/16 03:38:41;;;;;;;1.77;1.00;;;14.40;99.90;;;;;;5011574;28;20038;-69
2023/08/16 03:41:07;;;;;;;1.88;1.10;;;14.30;99.90;;;;;;5011712;28;20084;-69
2023/08/16 03:43:37;;;;;;;2.17;1.30;;;14.40;99.90;;;;;;5011672;28;20061;-69
2023/08/16 03:46:03;;;;;;;2.60;1.40;;;14.30;99.90;;;;;;5010572;28;20034;-69
2023/08/16 03:48:29;;;;;;;3.47;1.90;;;14.50;99.90;;;;;;5010634;28;20038;-69
2023/08/16 03:50:54;;;;;;;3.63;2.03;;;14.30;99.90;;;;;;5010938;28;20088;-69
2023/08/16 03:53:20;;;;;;;2.97;2.13;;;14.60;99.90;;;;;;4993591;28;20077;-70
2023/08/16 03:55:46;;;;;;;3.97;2.17;;;14.50;99.90;;;;;;4993784;28;20398;-70
2023/08/16 03:58:12;;;;;;;3.25;2.10;;;14.50;99.90;;;;;;5011100;28;20046;-69
2023/08/16 04:00:37;;;;;;;4.93;2.67;;;14.40;99.90;;;;;;5011610;28;20038;-69
2023/08/16 04:03:04;;;;;;;5.28;2.80;;;14.60;99.90;;;;;;5011704;28;20121;-70
2023/08/16 04:05:30;;;;;;;4.78;3.40;;;14.50;99.90;;;;;;5011491;28;20510;-70
2023/08/16 04:07:55;;;;;;;4.45;3.50;;;14.40;99.90;;;;;;5011183;28;20075;-70
2023/08/16 04:10:21;;;;;;;5.15;3.90;;;14.60;99.90;;;;;;5011351;28;20038;-70
2023/08/16 04:12:46;;;;;;;4.63;3.90;;;14.70;99.90;;;;;;5011251;28;20520;-69
2023/08/16 04:15:12;;;;;;;5.03;3.90;;;14.80;99.90;;;;;;5009854;28;20041;-69
2023/08/16 04:17:38;;;;;;;6.00;4.18;;;14.60;99.90;;;;;;4993348;28;20131;-70
2023/08/16 04:20:08;;;;;;;9.90;4.85;;;14.50;99.90;;;;;;4993979;28;20064;-70
2023/08/16 04:22:34;;;;;;;5.88;4.15;;;14.60;99.90;;;;;;5011456;28;20038;-70
2023/08/16 04:25:01;;;;;;;3.88;2.33;;;14.50;99.90;;;;;;5011097;28;20042;-69
2023/08/16 04:27:27;;;;;;;4.38;2.40;;;14.40;99.90;;;;;;5011039;28;20038;-69
2023/08/16 04:29:53;;;;;;;1.92;1.55;;;14.40;99.90;;;;;;5011409;28;20048;-69
2023/08/16 04:32:19;;;;;;;3.10;2.00;;;14.30;99.90;;;;;;5011332;28;20120;-70
2023/08/16 04:34:44;;;;;;;3.85;2.50;;;14.60;99.90;;;;;;5011210;28;20096;-70
2023/08/16 04:37:10;;;;;;;4.93;3.10;;;14.60;99.90;;;;;;5011351;28;20045;-70
2023/08/16 04:39:35;;;;;;;9.60;4.20;;;14.40;99.90;;;;;;5011238;28;20042;-70
2023/08/16 04:42:01;;;;;;;9.43;4.38;;;14.40;99.90;;;;;;5011041;28;20040;-71
2023/08/16 04:44:26;;;;;;;5.93;3.60;;;14.60;99.90;;;;;;5013612;28;20065;-70
2023/08/16 04:46:52;;;;;;;8.50;3.80;;;14.60;99.90;;;;;;5014553;28;20084;-70
2023/08/16 04:49:18;;;;;;;8.18;4.28;;;14.40;99.90;;;;;;5014185;28;20042;-70
2023/08/16 04:51:44;;;;;;;8.55;4.10;;;14.70;99.90;;;;;;5014199;28;20524;-70
2023/08/16 04:54:09;;;;;;;6.63;4.97;;;14.50;99.90;;;;;;5014384;28;20038;-70
2023/08/16 04:56:36;;;;;;;8.00;4.80;;;14.60;99.90;;;;;;5014135;28;20096;-70
2023/08/16 04:59:01;;;;;;;7.18;4.78;;;14.90;99.90;;;;;;5014214;28;20046;-70
2023/08/16 05:01:27;;;;;;;8.48;5.53;;;14.90;99.90;;;;;;5013681;28;20049;-70
2023/08/16 05:03:53;;;;;;;9.52;6.05;;;15.00;99.90;;;;;;5014503;28;20038;-70
2023/08/16 05:06:18;;;;;;;8.23;6.10;;;15.10;99.90;;;;;;5014102;28;20034;-70
2023/08/16 05:08:45;;;;;;;7.65;5.93;;;15.30;99.90;;;;;;5014107;28;20121;-70
2023/08/16 05:11:10;;;;;;;10.45;6.28;;;15.20;99.90;;;;;;5013990;28;20521;-70
2023/08/16 05:13:36;;;;;;;6.57;4.90;;;15.70;99.90;;;;;;5014408;28;20076;-70
2023/08/16 05:16:02;;;;;;;8.02;5.32;;;15.50;99.90;;;;;;5014001;28;20516;-70
2023/08/16 05:18:28;;;;;;;5.05;4.47;;;15.80;99.90;;;;;;4996345;28;20053;-70
2023/08/16 05:20:58;;;;;;;6.72;4.32;;;15.70;99.90;;;;;;5013807;28;20177;-70
2023/08/16 05:23:24;;;;;;;6.45;4.30;;;16.00;99.90;;;;;;5013931;28;20045;-70
2023/08/16 05:25:50;;;;;;;5.32;3.40;;;16.00;99.90;;;;;;5013618;28;20125;-70
2023/08/16 05:28:15;;;;;;;4.28;2.97;;;16.40;99.90;;;;;;5013845;28;20046;-70
2023/08/16 05:30:41;;;;;;;4.30;3.42;;;16.60;99.90;;;;;;5014040;28;20077;-70
2023/08/16 05:33:07;;;;;;;4.53;3.50;;;16.80;99.90;;;;;;4996277;28;20524;-70
2023/08/16 05:35:33;;;;;;;4.47;3.50;;;16.90;99.90;;;;;;5013460;28;20046;-70
2023/08/16 05:37:59;;;;;;;6.18;3.92;;;17.20;99.90;;;;;;4996035;28;20042;-71
2023/08/16 05:40:24;;;;;;;6.50;4.03;;;17.40;99.90;;;;;;5013654;28;20080;-70
2023/08/16 05:42:50;;;;;;;5.80;4.80;;;17.40;99.90;;;;;;5013716;28;20038;-70
2023/08/16 05:45:16;;;;;;;7.05;3.70;;;17.50;99.90;;;;;;5013530;28;20046;-70
2023/08/16 05:47:42;;;;;;;3.78;3.38;;;17.70;99.90;;;;;;4995903;28;20498;-70
2023/08/16 05:50:08;;;;;;;4.00;3.22;;;17.80;99.90;;;;;;5013426;28;20418;-70
2023/08/16 05:52:33;;;;;;;5.13;2.95;;;18.10;99.90;;;;;;5013501;28;20156;-70
2023/08/16 05:54:59;;;;;;;4.70;3.47;;;18.20;99.90;;;;;;4995456;28;20561;-70
2023/08/16 05:57:24;;;;;;;3.40;3.03;;;18.50;99.90;;;;;;5013183;28;20175;-71
2023/08/16 05:59:50;;;;;;;4.07;3.50;;;18.40;99.90;;;;;;4995644;28;20049;-71
2023/08/16 06:02:16;;;;;;;5.13;3.20;;;18.30;99.90;;;;;;4995786;28;20049;-70
2023/08/16 06:04:42;;;;;;;6.47;3.90;;;18.60;99.90;;;;;;4995572;28;20038;-70
2023/08/16 06:07:08;;;;;;;4.30;3.40;;;19.10;99.90;;;;;;5012859;28;20508;-71
2023/08/16 06:09:34;;;;;;;5.50;3.42;;;19.10;99.90;;;;;;5012672;28;20386;-70
2023/08/16 06:12:00;;;;;;;3.90;3.03;;;19.40;99.90;;;;;;5013412;28;20053;-72
2023/08/16 06:14:26;;;;;;;5.45;3.15;;;19.50;99.90;;;;;;5011974;28;20104;-71
2023/08/16 06:16:51;;;;;;;3.42;2.97;;;19.60;99.90;;;;;;5013306;28;20038;-70
2023/08/16 06:19:17;;;;;;;4.05;3.08;;;19.50;99.90;;;;;;5013125;28;20529;-71
2023/08/16 06:21:42;;;;;;;5.18;3.72;;;19.70;99.90;;;;;;5013383;28;20034;-70
2023/08/16 06:24:08;;;;;;;5.30;3.15;;;19.70;99.90;;;;;;5013005;28;20425;-70
2023/08/16 06:26:34;;;;;;;4.88;2.95;;;19.50;99.90;;;;;;5013397;28;20113;-70
2023/08/16 06:29:00;;;;;;;4.03;2.85;;;19.80;99.90;;;;;;5012968;28;20050;-70
2023/08/16 06:31:25;;;;;;;5.25;3.15;;;19.30;99.90;;;;;;5012941;28;20517;-70
2023/08/16 06:33:51;;;;;;;5.45;3.10;;;19.20;99.90;;;;;;5012819;28;20042;-70
2023/08/16 06:36:17;;;;;;;6.30;3.45;;;18.90;99.90;;;;;;5012585;28;20042;-71
2023/08/16 06:38:43;;;;;;;5.55;3.33;;;19.10;99.90;;;;;;5012721;28;20049;-70
2023/08/16 06:41:12;;;;;;;8.90;4.95;;;19.20;99.90;;;;;;5013089;28;20046;-70
2023/08/16 06:43:38;;;;;;;6.28;3.40;;;19.00;99.90;;;;;;5012768;28;20487;-70
2023/08/16 06:46:04;;;;;;;4.28;3.17;;;19.00;99.90;;;;;;5012581;28;20069;-70
2023/08/16 06:48:31;;;;;;;4.90;2.85;;;19.00;99.90;;;;;;5012259;28;20117;-70
2023/08/16 06:50:56;;;;;;;3.15;2.75;;;19.10;99.90;;;;;;5012576;28;20069;-70
2023/08/16 06:53:22;;;;;;;5.32;3.53;;;19.30;99.90;;;;;;5012361;28;20050;-70
2023/08/16 06:55:48;;;;;;;6.40;3.42;;;19.10;99.90;;;;;;5012191;28;20069;-70
2023/08/16 06:58:13;;;;;;;3.38;2.95;;;19.50;99.90;;;;;;5012238;28;20124;-70
2023/08/16 07:00:45;;;;;;;4.40;3.63;;;19.40;99.90;;;;;;5012270;28;20076;-70
2023/08/16 07:03:10;;;;;;;5.43;3.40;;;19.70;99.90;;;;;;5011742;28;20042;-70
2023/08/16 07:05:36;;;;;;;4.25;3.63;;;19.80;99.90;;;;;;5011578;28;20119;-70
2023/08/16 07:08:03;;;;;;;6.20;3.75;;;20.10;99.90;;;;;;5012028;28;20037;-70
2023/08/16 07:10:29;;;;;;;5.32;3.92;;;19.90;99.90;;;;;;5012032;28;20108;-70
2023/08/16 07:12:55;;;;;;;5.10;4.03;;;20.10;99.90;;;;;;5012245;28;20745;-71
2023/08/16 07:15:20;;;;;;;6.72;3.80;;;19.70;99.90;;;;;;5011951;28;20121;-70
2023/08/16 07:17:46;;;;;;;6.93;4.07;;;20.00;99.90;;;;;;5021896;28;20120;-70
2023/08/16 07:20:12;;;;;;;7.25;4.13;;;20.00;99.90;;;;;;5021451;28;20042;-70
2023/08/16 07:22:38;;;;;;;5.15;4.30;;;20.40;99.90;;;;;;5020512;28;20033;-70
2023/08/16 07:25:08;;;;;;;6.03;4.82;;;20.60;99.90;;;;;;5021062;28;20034;-70
2023/08/16 07:27:34;;;;;;;7.97;4.70;;;20.70;99.90;;;;;;5025752;28;20045;-70
2023/08/16 07:30:00;;;;;;;5.90;4.47;;;21.00;99.90;;;;;;5031541;28;20508;-70
2023/08/16 07:32:25;;;;;;;7.00;4.82;;;21.10;99.90;;;;;;5013803;28;20050;-70
2023/08/16 07:34:51;;;;;;;5.70;4.65;;;20.80;99.90;;;;;;5022439;28;20060;-70
2023/08/16 07:37:17;;;;;;;8.30;4.75;;;21.10;99.90;;;;;;5021733;28;20120;-70
2023/08/16 07:39:44;;;;;;;6.13;4.57;;;20.90;99.90;;;;;;5021502;28;20042;-71
2023/08/16 07:42:09;;;;;;;6.25;5.30;;;20.50;99.90;;;;;;5020014;28;20034;-70
2023/08/16 07:44:35;;;;;;;5.57;4.88;;;20.70;99.90;;;;;;4994267;28;20129;-71
2023/08/16 07:47:01;;;;;;;6.50;4.20;;;20.90;99.90;;;;;;4994202;28;20045;-71
2023/08/16 07:49:27;;;;;;;7.60;4.53;;;21.10;99.90;;;;;;5011448;28;20665;-71
2023/08/16 07:51:55;;;;;;;6.57;4.28;;;21.20;99.90;;;;;;5011952;28;20042;-71
2023/08/16 07:54:21;;;;;;;4.63;2.08;;;21.50;99.90;;;;;;5011798;28;20045;-71
2023/08/16 07:56:47;;;;;;;4.22;1.80;;;21.70;99.90;;;;;;5011747;28;20460;-71
2023/08/16 07:59:13;;;;;;;3.40;1.30;;;21.70;99.90;;;;;;5014512;28;20042;-70
2023/08/16 08:01:39;;;;;;;2.53;1.42;;;21.60;99.90;;;;;;5025385;28;20033;-71
2023/08/16 08:04:05;;;;;;;4.72;1.52;;;21.50;99.90;;;;;;5022807;28;20568;-71
2023/08/16 08:06:31;;;;;;;4.05;1.60;;;21.60;99.90;;;;;;5025707;28;20109;-70
2023/08/16 08:08:56;;;;;;;3.65;1.60;;;21.40;99.90;;;;;;5022397;28;20030;-70
2023/08/16 08:11:22;;;;;;;3.35;1.38;;;21.80;99.90;;;;;;5013599;28;20511;-70
2023/08/16 08:13:47;;;;;;;2.45;1.30;;;21.70;99.90;;;;;;5031333;28;20041;-70
2023/08/16 08:16:13;;;;;;;5.78;1.50;;;21.60;99.90;;;;;;5031199;28;20037;-70
2023/08/16 08:18:39;;;;;;;4.93;1.38;;;21.80;99.90;;;;;;5033807;28;20044;-70
2023/08/16 08:21:04;;;;;;;5.07;1.38;;;22.40;99.90;;;;;;5030439;28;20029;-70
2023/08/16 08:23:30;;;;;;;3.50;1.35;;;22.60;99.90;;;;;;5022547;28;20034;-70
2023/08/16 08:25:55;;;;;;;3.65;1.30;;;22.60;99.90;;;;;;5002355;28;20509;-70
2023/08/16 08:28:22;;;;;;;3.88;1.40;;;22.50;99.90;;;;;;4997228;28;20069;-70
2023/08/16 08:30:48;;;;;;;3.60;1.42;;;22.70;99.90;;;;;;4998311;28;20460;-70
2023/08/16 08:33:13;;;;;;;2.58;1.10;;;23.20;99.90;;;;;;5034229;28;20038;-70
2023/08/16 08:35:39;;;;;;;2.83;1.25;;;23.60;99.90;;;;;;5016731;28;20045;-70
2023/08/16 08:38:04;;;;;;;2.88;1.67;;;23.80;99.90;;;;;;5034529;28;20454;-71
2023/08/16 08:40:31;;;;;;;4.18;1.30;;;23.90;99.90;;;;;;5030907;28;20052;-70
2023/08/16 08:42:58;;;;;;;2.55;1.38;;;23.80;99.90;;;;;;5028592;28;20476;-70
2023/08/16 08:45:26;;;;;;;4.32;1.40;;;23.80;99.90;;;;;;5024323;28;20068;-70
2023/08/16 08:47:52;;;;;;;2.78;1.40;;;23.50;99.90;;;;;;4997028;28;20453;-70
2023/08/16 08:50:18;;;;;;;4.60;0.98;;;23.10;99.90;;;;;;4980797;28;20116;-70
2023/08/16 08:52:50;;;;;;;2.75;0.90;;;23.20;99.90;;;;;;5026124;28;20065;-70
2023/08/16 08:55:15;;;;;;;4.38;1.30;;;23.50;99.90;;;;;;5031427;28;20045;-70
2023/08/16 08:57:43;;;;;;;1.58;0.95;;;23.60;99.90;;;;;;5033840;28;20045;-71
2023/08/16 09:00:14;;;;;;;4.57;1.10;;;23.70;99.90;;;;;;5034220;28;20030;-70
2023/08/16 09:02:40;;;;;;;2.58;1.52;;;23.50;99.90;;;;;;5016474;28;20408;-72
2023/08/16 09:05:09;;;;;;;5.00;1.50;;;23.50;99.90;;;;;;5016322;28;20041;-72
2023/08/16 09:07:37;;;;;;;7.32;1.90;;;23.60;99.90;;;;;;5033789;28;20512;-72
2023/08/16 09:10:03;;;;;;;5.10;1.50;;;23.90;99.90;;;;;;5016539;28;20137;-72
2023/08/16 09:12:28;;;;;;;3.10;1.98;;;23.90;99.90;;;;;;5034042;28;20133;-71
2023/08/16 09:14:54;;;;;;;4.72;1.48;;;24.10;99.90;;;;;;5022997;28;20037;-71
2023/08/16 09:17:19;;;;;;;3.38;0.93;;;24.10;99.90;;;;;;5004594;28;20037;-71
2023/08/16 09:19:45;;;;;;;3.95;1.27;;;23.90;99.90;;;;;;5023888;28;20033;-71
2023/08/16 09:22:12;;;;;;;2.22;1.23;;;24.00;99.90;;;;;;5023749;28;20037;-71
2023/08/16 09:24:40;;;;;;;1.48;0.70;;;23.80;99.90;;;;;;5015512;28;20128;-72
2023/08/16 09:27:06;;;;;;;3.80;1.40;;;23.90;99.90;;;;;;5022495;28;20132;-71
2023/08/16 09:29:31;;;;;;;3.33;1.23;;;23.60;99.90;;;;;;5023430;28;20117;-71
2023/08/16 09:31:57;;;;;;;1.77;0.80;;;23.40;99.90;;;;;;5005219;28;20046;-71
2023/08/16 09:34:24;;;;;;;2.53;1.00;;;23.20;99.80;;;;;;5005150;28;20512;-71
2023/08/16 09:36:51;;;;;;;3.20;1.30;;;23.10;99.70;;;;;;5016319;28;20095;-71
2023/08/16 09:39:17;;;;;;;2.47;1.67;;;23.10;99.90;;;;;;4995974;28;20046;-71
2023/08/16 09:41:50;;;;;;;3.08;1.20;;;23.00;99.90;;;;;;5013732;28;20061;-71
2023/08/16 09:44:18;;;;;;;4.03;1.50;;;22.90;99.90;;;;;;4995843;28;20058;-71
2023/08/16 09:46:43;;;;;;;5.38;2.17;;;22.70;99.90;;;;;;4995962;28;20069;-71
2023/08/16 09:49:10;;;;;;;3.58;1.30;;;22.50;99.90;;;;;;5013314;28;20080;-71
2023/08/16 09:51:40;;;;;;;5.15;1.98;;;22.50;99.90;;;;;;5013588;28;20453;-71
2023/08/16 09:54:13;;;;;;;4.38;1.65;;;22.50;99.90;;;;;;5013419;28;20109;-71
2023/08/16 09:56:39;;;;;;;;;;;22.40;99.90;;;;;;5013943;28;20033;-71
2023/08/16 09:59:08;;;;;;;2.65;1.60;;;22.40;99.90;;;;;;5013083;28;20407;-71
2023/08/16 10:01:35;;;;;;;4.95;2.70;;;22.20;99.90;;;;;;5013428;28;20034;-71
2023/08/16 10:04:02;;;;;;;7.18;1.95;;;22.30;99.90;;;;;;5013221;28;20034;-71
2023/08/16 10:06:32;;;;;;;7.78;1.63;;;22.30;99.90;;;;;;5020903;28;20072;-71
2023/08/16 10:08:58;;;;;;;4.97;2.28;;;22.50;99.90;;;;;;5006300;28;20497;-71
2023/08/16 10:11:24;;;;;;;3.92;2.10;;;22.50;99.90;;;;;;5022919;28;20034;-70
2023/08/16 10:13:50;;;;;;;4.32;1.88;;;22.50;99.90;;;;;;5011633;28;20429;-70
2023/08/16 10:16:21;;;;;;;2.95;1.90;;;22.60;99.90;;;;;;5032738;28;20535;-70
2023/08/16 10:18:47;;;;;;;5.95;3.03;;;22.70;99.90;;;;;;5032468;28;20505;-70
2023/08/16 10:21:17;;;;;;;5.55;3.03;;;22.60;99.90;;;;;;5032891;28;20140;-70
2023/08/16 10:23:44;;;;;;;5.13;3.17;;;22.70;99.90;;;;;;5014898;28;20083;-70
2023/08/16 10:26:15;;;;;;;2.90;2.60;;;22.70;99.90;;;;;;5014822;28;20045;-70
2023/08/16 10:28:51;;;;;;;6.38;3.70;;;22.60;99.90;;;;;;5032182;28;20493;-70
2023/08/16 10:31:20;;;;;;;3.78;3.10;;;22.70;99.90;;;;;;5031134;28;20074;-70
2023/08/16 10:33:48;;;;;;;4.93;3.13;;;22.50;99.90;;;;;;5022594;28;20065;-70
2023/08/16 10:36:15;;;;;;;4.72;3.17;;;22.50;99.90;;;;;;5055459;22;20050;-71
2023/08/16 10:38:44;;;;;;;4.35;1.83;;;22.30;99.90;;;;;;4997455;28;20590;-71
2023/08/16 10:41:14;;;;;;;3.67;1.88;;;22.10;99.90;;;;;;5031572;28;20053;-71
2023/08/16 10:43:46;;;;;;;4.55;1.48;;;22.30;99.90;;;;;;5032372;28;20041;-71
2023/08/16 10:46:13;;;;;;;4.93;1.10;;;22.30;99.90;;;;;;5032182;28;20049;-71
2023/08/16 10:48:38;;;;;;;3.25;1.60;;;22.40;99.90;;;;;;5031915;28;20493;-71
2023/08/16 10:51:06;;;;;;;4.93;1.00;;;22.60;99.90;;;;;;5032067;28;20048;-71
2023/08/16 10:53:34;;;;;;;2.85;1.85;;;22.70;99.90;;;;;;5032273;28;20045;-71
2023/08/16 10:56:07;;;;;;;1.85;1.23;;;22.60;99.90;;;;;;5014230;28;20556;-71
2023/08/16 10:58:45;;;;;;;4.32;1.20;;;22.50;99.30;;;;;;5013919;28;20072;-71
2023/08/16 11:01:11;;;;;;;1.67;0.80;;;22.60;97.60;;;;;;5031548;28;20037;-71
2023/08/16 11:03:39;;;;;;;4.10;1.30;;;22.50;97.60;;;;;;5031316;28;20033;-71
2023/08/16 11:06:12;;;;;;;3.13;1.40;;;22.50;98.30;;;;;;5013706;28;20033;-71
2023/08/16 11:08:42;;;;;;;3.40;1.17;;;22.40;98.60;;;;;;5031294;28;20036;-71
2023/08/16 11:11:09;;;;;;;3.30;1.48;;;22.40;98.70;;;;;;5028761;28;20046;-71
2023/08/16 11:13:35;;;;;;;1.92;0.98;;;22.30;99.30;;;;;;5013725;28;20112;-71
2023/08/16 11:16:00;;;;;;;7.72;1.58;;;22.20;99.40;;;;;;5013792;28;20187;-71
2023/08/16 11:18:31;;;;;;;1.98;0.88;;;22.20;99.60;;;;;;5031410;28;20045;-71
2023/08/16 11:21:00;;;;;;;1.60;1.02;;;22.20;98.90;;;;;;5014036;28;20042;-71
2023/08/16 11:23:37;;;;;;;6.55;1.73;;;22.30;98.90;;;;;;5013662;28;20035;-71
2023/08/16 11:26:04;;;;;;;3.97;1.17;;;22.40;98.70;;;;;;5028532;28;20033;-71
2023/08/16 11:28:32;;;;;;;4.03;1.42;;;22.50;99.20;;;;;;5030766;28;20051;-71
2023/08/16 11:30:59;;;;;;;3.03;1.17;;;22.50;98.70;;;;;;5031089;28;20496;-71
2023/08/16 11:33:34;;;;;;;2.88;1.00;;;22.60;99.50;;;;;;5031262;28;20045;-71
2023/08/16 11:36:02;;;;;;;3.53;1.55;;;22.60;99.60;;;;;;5029423;28;20038;-71
2023/08/16 11:38:29;;;;;;;1.80;1.23;;;22.60;99.00;;;;;;5012950;28;20045;-71
2023/08/16 11:40:55;;;;;;;4.00;1.30;;;22.50;98.40;;;;;;5030313;28;20096;-71
2023/08/16 11:43:31;;;;;;;4.13;1.30;;;22.50;99.10;;;;;;5013821;28;20126;-71
2023/08/16 11:45:57;;;;;;;1.85;0.73;;;22.50;99.90;;;;;;5013523;28;20161;-71
2023/08/16 11:48:25;;;;;;;2.15;0.70;;;22.50;99.20;;;;;;5031139;28;20124;-71
2023/08/16 11:50:51;;;;;;;1.50;0.70;;;22.50;98.70;;;;;;5030966;28;20554;-71
2023/08/16 11:53:18;;;;;;;3.92;1.30;;;22.30;98.40;;;;;;5015713;28;20133;-71
2023/08/16 11:56:04;;;;;;;1.85;1.23;;;22.30;99.60;;;;;;5034956;28;20037;-70
2023/08/16 11:58:30;;;;;;;1.98;1.00;;;22.40;99.60;;;;;;5035015;28;20037;-71
2023/08/16 12:01:02;;;;;;;2.35;1.27;;;22.50;99.30;;;;;;5035347;28;20128;-72
2023/08/16 12:03:32;;;;;;;2.80;1.00;;;22.60;98.70;;;;;;5015559;28;20374;-71
2023/08/16 12:06:10;;;;;;;1.95;1.02;;;22.60;98.40;;;;;;5034835;28;20033;-71
2023/08/16 12:08:46;;;;;;;4.38;1.50;;;22.60;98.80;;;;;;5033704;28;20048;-71
2023/08/16 12:11:11;;;;;;;1.88;1.08;;;22.40;99.20;;;;;;5034959;28;20048;-71
2023/08/16 12:13:37;;;;;;;2.20;1.13;;;22.30;99.90;;;;;;5035179;28;20037;-71
2023/08/16 12:16:02;;;;;;;3.38;1.30;;;22.10;99.90;;;;;;5035039;28;20045;-71
2023/08/16 12:18:28;;;;;;;3.20;1.30;;;22.10;99.90;;;;;;5034627;28;20126;-71
2023/08/16 12:20:53;;;;;;;3.17;1.10;;;22.20;99.40;;;;;;5034779;28;20040;-71
2023/08/16 12:23:20;;;;;;;2.42;0.77;;;22.20;99.40;;;;;;5017163;28;20060;-71
2023/08/16 12:25:46;;;;;;;2.92;0.82;;;22.30;99.60;;;;;;5016652;28;20041;-71
2023/08/16 12:28:12;;;;;;;4.57;1.30;;;22.60;99.50;;;;;;5034381;28;20056;-71
2023/08/16 12:30:38;;;;;;;2.30;0.93;;;22.50;98.60;;;;;;5034662;28;20037;-71
2023/08/16 12:33:04;;;;;;;2.40;0.95;;;22.60;98.50;;;;;;5017123;28;20060;-71
2023/08/16 12:35:30;;;;;;;2.05;1.05;;;22.60;98.30;;;;;;5013724;28;20103;-71
2023/08/16 12:37:56;;;;;;;1.70;1.23;;;22.60;98.30;;;;;;5033821;28;20041;-72
2023/08/16 12:40:26;;;;;;;3.72;1.30;;;22.60;99.90;;;;;;5016738;28;20037;-72
2023/08/16 12:42:52;;;;;;;2.72;1.60;;;22.70;99.90;;;;;;5017070;28;20072;-71
2023/08/16 12:45:18;;;;;;;2.30;1.00;;;22.70;99.50;;;;;;5034451;28;20037;-71